sensor_id;sensor_type;location;lat;lon;timestamp;P1;durP1;ratioP1;P2;durP2;ratioP2
33162;SDS011;29282;45.656;11.302;2023-05-10T00:01:20;5.97;;;4.05;;
33162;SDS011;29282;45.656;11.302;2023-05-10T00:03:46;5.30;;;3.70;;
33162;SDS011;29282;45.656;11.302;2023-05-10T00:06:11;5.43;;;3.75;;
33162;SDS011;29282;45.656;11.302;2023-05-10T00:08:37;4.45;;;3.65;;
33162;SDS011;29282;45.656;11.302;2023-05-10T00:11:02;6.63;;;4.25;;
33162;SDS011;29282;45.656;11.302;2023-05-10T00:13:28;4.00;;;3.60;;
33162;SDS011;29282;45.656;11.302;2023-05-10T00:15:53;5.32;;;3.53;;
33162;SDS011;29282;45.656;11.302;2023-05-10T00:18:19;4.32;;;3.88;;
33162;SDS011;29282;45.656;11.302;2023-05-10T00:20:44;4.93;;;3.72;;
33162;SDS011;29282;45.656;11.302;2023-05-10T00:23:11;4.15;;;3.75;;
33162;SDS011;29282;45.656;11.302;2023-05-10T00:25:37;5.07;;;3.90;;
33162;SDS011;29282;45.656;11.302;2023-05-10T00:28:02;4.68;;;3.60;;
33162;SDS011;29282;45.656;11.302;2023-05-10T00:30:28;5.22;;;3.58;;
33162;SDS011;29282;45.656;11.302;2023-05-10T00:32:53;4.97;;;4.13;;
33162;SDS011;29282;45.656;11.302;2023-05-10T00:35:19;4.35;;;3.78;;
33162;SDS011;29282;45.656;11.302;2023-05-10T00:37:44;5.32;;;3.80;;
33162;SDS011;29282;45.656;11.302;2023-05-10T00:40:10;4.80;;;3.67;;
33162;SDS011;29282;45.656;11.302;2023-05-10T00:42:36;5.57;;;4.00;;
33162;SDS011;29282;45.656;11.302;2023-05-10T00:45:01;4.45;;;3.75;;
33162;SDS011;29282;45.656;11.302;2023-05-10T00:47:27;4.63;;;3.63;;
33162;SDS011;29282;45.656;11.302;2023-05-10T00:49:53;4.05;;;3.22;;
33162;SDS011;29282;45.656;11.302;2023-05-10T00:52:20;4.45;;;3.55;;
33162;SDS011;29282;45.656;11.302;2023-05-10T00:54:48;7.28;;;3.60;;
33162;SDS011;29282;45.656;11.302;2023-05-10T00:57:14;3.83;;;3.40;;
33162;SDS011;29282;45.656;11.302;2023-05-10T00:59:39;3.83;;;3.50;;
33162;SDS011;29282;45.656;11.302;2023-05-10T01:02:05;4.50;;;3.35;;
33162;SDS011;29282;45.656;11.302;2023-05-10T01:04:31;3.95;;;3.45;;
33162;SDS011;29282;45.656;11.302;2023-05-10T01:06:57;3.83;;;3.42;;
33162;SDS011;29282;45.656;11.302;2023-05-10T01:09:26;4.20;;;3.50;;
33162;SDS011;29282;45.656;11.302;2023-05-10T01:11:52;4.05;;;3.65;;
33162;SDS011;29282;45.656;11.302;2023-05-10T01:14:19;5.25;;;3.55;;
33162;SDS011;29282;45.656;11.302;2023-05-10T01:16:45;3.50;;;3.20;;
33162;SDS011;29282;45.656;11.302;2023-05-10T01:19:18;4.53;;;3.72;;
33162;SDS011;29282;45.656;11.302;2023-05-10T01:22:05;5.47;;;3.55;;
33162;SDS011;29282;45.656;11.302;2023-05-10T01:33:54;4.43;;;3.33;;
33162;SDS011;29282;45.656;11.302;2023-05-10T01:39:01;4.00;;;3.60;;
33162;SDS011;29282;45.656;11.302;2023-05-10T01:44:34;4.03;;;3.13;;
33162;SDS011;29282;45.656;11.302;2023-05-10T01:47:12;3.72;;;3.42;;
33162;SDS011;29282;45.656;11.302;2023-05-10T01:49:49;3.90;;;3.20;;
33162;SDS011;29282;45.656;11.302;2023-05-10T01:52:18;3.70;;;3.38;;
33162;SDS011;29282;45.656;11.302;2023-05-10T01:55:00;4.43;;;3.33;;
33162;SDS011;29282;45.656;11.302;2023-05-10T01:57:31;3.60;;;3.30;;
33162;SDS011;29282;45.656;11.302;2023-05-10T01:59:58;4.05;;;3.38;;
33162;SDS011;29282;45.656;11.302;2023-05-10T02:02:26;3.75;;;3.38;;
33162;SDS011;29282;45.656;11.302;2023-05-10T02:04:54;3.63;;;3.33;;
33162;SDS011;29282;45.656;11.302;2023-05-10T02:07:22;5.18;;;3.33;;
33162;SDS011;29282;45.656;11.302;2023-05-10T02:09:49;4.18;;;3.65;;
33162;SDS011;29282;45.656;11.302;2023-05-10T02:12:15;4.93;;;3.88;;
33162;SDS011;29282;45.656;11.302;2023-05-10T02:14:42;5.38;;;3.40;;
33162;SDS011;29282;45.656;11.302;2023-05-10T02:17:09;4.53;;;3.58;;
33162;SDS011;29282;45.656;11.302;2023-05-10T02:19:38;3.78;;;3.47;;
33162;SDS011;29282;45.656;11.302;2023-05-10T02:22:05;3.83;;;3.42;;
33162;SDS011;29282;45.656;11.302;2023-05-10T02:24:33;5.15;;;3.30;;
33162;SDS011;29282;45.656;11.302;2023-05-10T02:27:00;3.70;;;3.40;;
33162;SDS011;29282;45.656;11.302;2023-05-10T02:29:28;5.10;;;2.97;;
33162;SDS011;29282;45.656;11.302;2023-05-10T02:31:56;4.07;;;3.67;;
33162;SDS011;29282;45.656;11.302;2023-05-10T02:34:24;5.00;;;3.70;;
33162;SDS011;29282;45.656;11.302;2023-05-10T02:36:51;3.60;;;3.30;;
33162;SDS011;29282;45.656;11.302;2023-05-10T02:39:21;3.58;;;2.97;;
33162;SDS011;29282;45.656;11.302;2023-05-10T02:41:50;4.13;;;3.05;;
33162;SDS011;29282;45.656;11.302;2023-05-10T02:44:18;3.47;;;3.17;;
33162;SDS011;29282;45.656;11.302;2023-05-10T02:46:45;3.97;;;3.30;;
33162;SDS011;29282;45.656;11.302;2023-05-10T02:49:11;3.67;;;3.33;;
33162;SDS011;29282;45.656;11.302;2023-05-10T02:51:40;3.30;;;3.00;;
33162;SDS011;29282;45.656;11.302;2023-05-10T02:54:27;3.45;;;3.13;;
33162;SDS011;29282;45.656;11.302;2023-05-10T02:56:57;3.28;;;2.97;;
33162;SDS011;29282;45.656;11.302;2023-05-10T02:59:25;3.20;;;2.90;;
33162;SDS011;29282;45.656;11.302;2023-05-10T03:01:51;3.45;;;3.00;;
33162;SDS011;29282;45.656;11.302;2023-05-10T03:04:17;3.50;;;3.20;;
33162;SDS011;29282;45.656;11.302;2023-05-10T03:06:43;4.50;;;3.42;;
33162;SDS011;29282;45.656;11.302;2023-05-10T03:09:09;4.47;;;3.08;;
33162;SDS011;29282;45.656;11.302;2023-05-10T03:11:44;3.85;;;3.22;;
33162;SDS011;29282;45.656;11.302;2023-05-10T03:17:06;3.60;;;3.30;;
33162;SDS011;29282;45.656;11.302;2023-05-10T03:19:40;3.25;;;2.90;;
33162;SDS011;29282;45.656;11.302;2023-05-10T03:22:12;3.53;;;3.08;;
33162;SDS011;29282;45.656;11.302;2023-05-10T03:24:45;3.80;;;3.38;;
33162;SDS011;29282;45.656;11.302;2023-05-10T03:27:14;3.53;;;3.22;;
33162;SDS011;29282;45.656;11.302;2023-05-10T03:29:40;5.43;;;3.47;;
33162;SDS011;29282;45.656;11.302;2023-05-10T03:32:09;3.10;;;2.78;;
33162;SDS011;29282;45.656;11.302;2023-05-10T03:34:35;3.55;;;3.13;;
33162;SDS011;29282;45.656;11.302;2023-05-10T03:37:07;4.80;;;3.25;;
33162;SDS011;29282;45.656;11.302;2023-05-10T03:39:32;3.22;;;2.90;;
33162;SDS011;29282;45.656;11.302;2023-05-10T03:41:57;4.80;;;3.45;;
33162;SDS011;29282;45.656;11.302;2023-05-10T03:44:23;3.20;;;2.92;;
33162;SDS011;29282;45.656;11.302;2023-05-10T03:46:52;4.53;;;2.85;;
33162;SDS011;29282;45.656;11.302;2023-05-10T03:49:17;2.75;;;2.55;;
33162;SDS011;29282;45.656;11.302;2023-05-10T03:51:43;4.10;;;3.15;;
33162;SDS011;29282;45.656;11.302;2023-05-10T03:54:08;3.47;;;3.13;;
33162;SDS011;29282;45.656;11.302;2023-05-10T03:59:09;2.88;;;2.65;;
33162;SDS011;29282;45.656;11.302;2023-05-10T04:01:34;3.42;;;2.97;;
33162;SDS011;29282;45.656;11.302;2023-05-10T04:04:00;4.28;;;3.10;;
33162;SDS011;29282;45.656;11.302;2023-05-10T04:06:25;3.35;;;3.03;;
33162;SDS011;29282;45.656;11.302;2023-05-10T04:08:51;3.28;;;2.95;;
33162;SDS011;29282;45.656;11.302;2023-05-10T04:11:16;4.53;;;3.17;;
33162;SDS011;29282;45.656;11.302;2023-05-10T04:13:42;3.42;;;3.13;;
33162;SDS011;29282;45.656;11.302;2023-05-10T04:16:08;3.10;;;2.90;;
33162;SDS011;29282;45.656;11.302;2023-05-10T04:18:34;3.88;;;3.17;;
33162;SDS011;29282;45.656;11.302;2023-05-10T04:21:00;2.83;;;2.58;;
33162;SDS011;29282;45.656;11.302;2023-05-10T04:23:26;4.25;;;3.00;;
33162;SDS011;29282;45.656;11.302;2023-05-10T04:25:52;2.72;;;2.53;;
33162;SDS011;29282;45.656;11.302;2023-05-10T04:28:18;3.88;;;3.40;;
33162;SDS011;29282;45.656;11.302;2023-05-10T04:30:43;4.53;;;3.20;;
33162;SDS011;29282;45.656;11.302;2023-05-10T04:33:08;3.17;;;2.88;;
33162;SDS011;29282;45.656;11.302;2023-05-10T04:35:34;3.85;;;3.30;;
33162;SDS011;29282;45.656;11.302;2023-05-10T04:38:00;3.17;;;2.88;;
33162;SDS011;29282;45.656;11.302;2023-05-10T04:40:25;3.22;;;2.83;;
33162;SDS011;29282;45.656;11.302;2023-05-10T04:42:51;3.95;;;3.00;;
33162;SDS011;29282;45.656;11.302;2023-05-10T04:45:17;3.40;;;2.78;;
33162;SDS011;29282;45.656;11.302;2023-05-10T04:47:43;3.00;;;2.63;;
33162;SDS011;29282;45.656;11.302;2023-05-10T04:50:09;4.65;;;2.75;;
33162;SDS011;29282;45.656;11.302;2023-05-10T04:52:34;3.40;;;3.10;;
33162;SDS011;29282;45.656;11.302;2023-05-10T04:55:00;5.63;;;2.70;;
33162;SDS011;29282;45.656;11.302;2023-05-10T04:57:25;3.05;;;2.70;;
33162;SDS011;29282;45.656;11.302;2023-05-10T04:59:51;3.92;;;2.70;;
33162;SDS011;29282;45.656;11.302;2023-05-10T05:02:17;4.20;;;2.90;;
33162;SDS011;29282;45.656;11.302;2023-05-10T05:04:42;3.72;;;2.85;;
33162;SDS011;29282;45.656;11.302;2023-05-10T05:07:08;3.38;;;3.08;;
33162;SDS011;29282;45.656;11.302;2023-05-10T05:09:33;3.33;;;3.03;;
33162;SDS011;29282;45.656;11.302;2023-05-10T05:12:02;3.50;;;2.72;;
33162;SDS011;29282;45.656;11.302;2023-05-10T05:14:27;3.88;;;2.65;;
33162;SDS011;29282;45.656;11.302;2023-05-10T05:16:53;3.30;;;3.00;;
33162;SDS011;29282;45.656;11.302;2023-05-10T05:19:18;3.63;;;2.80;;
33162;SDS011;29282;45.656;11.302;2023-05-10T05:21:44;3.13;;;2.90;;
33162;SDS011;29282;45.656;11.302;2023-05-10T05:24:09;5.63;;;3.33;;
33162;SDS011;29282;45.656;11.302;2023-05-10T05:26:37;3.05;;;2.65;;
33162;SDS011;29282;45.656;11.302;2023-05-10T05:29:03;4.85;;;2.80;;
33162;SDS011;29282;45.656;11.302;2023-05-10T05:31:28;4.68;;;3.30;;
33162;SDS011;29282;45.656;11.302;2023-05-10T05:33:54;6.25;;;2.95;;
33162;SDS011;29282;45.656;11.302;2023-05-10T05:36:20;6.47;;;3.25;;
33162;SDS011;29282;45.656;11.302;2023-05-10T05:38:46;7.95;;;3.17;;
33162;SDS011;29282;45.656;11.302;2023-05-10T05:41:12;9.10;;;3.63;;
33162;SDS011;29282;45.656;11.302;2023-05-10T05:43:37;4.70;;;3.25;;
33162;SDS011;29282;45.656;11.302;2023-05-10T05:46:03;8.80;;;3.28;;
33162;SDS011;29282;45.656;11.302;2023-05-10T05:48:29;7.13;;;3.65;;
33162;SDS011;29282;45.656;11.302;2023-05-10T05:50:55;9.57;;;3.58;;
33162;SDS011;29282;45.656;11.302;2023-05-10T05:53:21;6.30;;;3.33;;
33162;SDS011;29282;45.656;11.302;2023-05-10T05:56:05;7.82;;;3.20;;
33162;SDS011;29282;45.656;11.302;2023-05-10T05:58:31;6.22;;;3.15;;
33162;SDS011;29282;45.656;11.302;2023-05-10T06:00:56;5.22;;;3.22;;
33162;SDS011;29282;45.656;11.302;2023-05-10T06:03:22;6.65;;;3.33;;
33162;SDS011;29282;45.656;11.302;2023-05-10T06:05:47;4.80;;;2.70;;
33162;SDS011;29282;45.656;11.302;2023-05-10T06:08:13;5.05;;;2.75;;
33162;SDS011;29282;45.656;11.302;2023-05-10T06:10:38;6.97;;;3.20;;
33162;SDS011;29282;45.656;11.302;2023-05-10T06:13:04;7.00;;;2.70;;
33162;SDS011;29282;45.656;11.302;2023-05-10T06:15:29;6.10;;;3.40;;
33162;SDS011;29282;45.656;11.302;2023-05-10T06:17:55;5.45;;;2.97;;
33162;SDS011;29282;45.656;11.302;2023-05-10T06:20:20;6.20;;;3.13;;
33162;SDS011;29282;45.656;11.302;2023-05-10T06:22:46;7.22;;;2.75;;
33162;SDS011;29282;45.656;11.302;2023-05-10T06:25:14;5.65;;;3.08;;
33162;SDS011;29282;45.656;11.302;2023-05-10T06:27:42;6.40;;;2.60;;
33162;SDS011;29282;45.656;11.302;2023-05-10T06:30:11;6.13;;;3.38;;
33162;SDS011;29282;45.656;11.302;2023-05-10T06:32:38;6.43;;;2.95;;
33162;SDS011;29282;45.656;11.302;2023-05-10T06:35:03;5.75;;;2.70;;
33162;SDS011;29282;45.656;11.302;2023-05-10T06:37:29;16.15;;;3.40;;
33162;SDS011;29282;45.656;11.302;2023-05-10T06:39:55;4.28;;;2.88;;
33162;SDS011;29282;45.656;11.302;2023-05-10T06:42:20;4.68;;;2.58;;
33162;SDS011;29282;45.656;11.302;2023-05-10T06:44:46;6.95;;;3.10;;
33162;SDS011;29282;45.656;11.302;2023-05-10T06:47:11;4.78;;;2.80;;
33162;SDS011;29282;45.656;11.302;2023-05-10T06:49:37;5.22;;;2.65;;
33162;SDS011;29282;45.656;11.302;2023-05-10T06:52:02;3.78;;;2.42;;
33162;SDS011;29282;45.656;11.302;2023-05-10T06:54:28;3.95;;;2.60;;
33162;SDS011;29282;45.656;11.302;2023-05-10T06:56:53;6.20;;;3.03;;
33162;SDS011;29282;45.656;11.302;2023-05-10T06:59:19;5.95;;;2.80;;
33162;SDS011;29282;45.656;11.302;2023-05-10T07:01:46;3.33;;;2.90;;
33162;SDS011;29282;45.656;11.302;2023-05-10T07:04:11;5.82;;;2.95;;
33162;SDS011;29282;45.656;11.302;2023-05-10T07:06:37;3.53;;;2.80;;
33162;SDS011;29282;45.656;11.302;2023-05-10T07:09:03;4.55;;;2.78;;
33162;SDS011;29282;45.656;11.302;2023-05-10T07:11:28;4.55;;;2.70;;
33162;SDS011;29282;45.656;11.302;2023-05-10T07:13:54;4.03;;;2.58;;
33162;SDS011;29282;45.656;11.302;2023-05-10T07:16:19;5.90;;;2.85;;
33162;SDS011;29282;45.656;11.302;2023-05-10T07:18:46;4.63;;;2.97;;
33162;SDS011;29282;45.656;11.302;2023-05-10T07:21:11;5.45;;;2.67;;
33162;SDS011;29282;45.656;11.302;2023-05-10T07:23:37;5.70;;;2.75;;
33162;SDS011;29282;45.656;11.302;2023-05-10T07:26:02;3.67;;;2.33;;
33162;SDS011;29282;45.656;11.302;2023-05-10T07:28:28;5.50;;;2.35;;
33162;SDS011;29282;45.656;11.302;2023-05-10T07:30:53;4.45;;;2.70;;
33162;SDS011;29282;45.656;11.302;2023-05-10T07:33:19;4.68;;;2.60;;
33162;SDS011;29282;45.656;11.302;2023-05-10T07:35:44;6.22;;;2.85;;
33162;SDS011;29282;45.656;11.302;2023-05-10T07:38:10;4.18;;;2.50;;
33162;SDS011;29282;45.656;11.302;2023-05-10T07:40:36;4.93;;;2.85;;
33162;SDS011;29282;45.656;11.302;2023-05-10T07:43:01;3.00;;;2.60;;
33162;SDS011;29282;45.656;11.302;2023-05-10T07:45:27;2.92;;;2.70;;
33162;SDS011;29282;45.656;11.302;2023-05-10T07:47:53;3.65;;;2.58;;
33162;SDS011;29282;45.656;11.302;2023-05-10T07:50:18;2.80;;;2.50;;
33162;SDS011;29282;45.656;11.302;2023-05-10T07:52:44;5.18;;;2.75;;
33162;SDS011;29282;45.656;11.302;2023-05-10T07:55:09;3.90;;;2.53;;
33162;SDS011;29282;45.656;11.302;2023-05-10T07:57:35;3.55;;;2.80;;
33162;SDS011;29282;45.656;11.302;2023-05-10T08:00:01;4.15;;;2.63;;
33162;SDS011;29282;45.656;11.302;2023-05-10T08:02:30;4.60;;;2.53;;
33162;SDS011;29282;45.656;11.302;2023-05-10T08:04:56;7.65;;;2.92;;
33162;SDS011;29282;45.656;11.302;2023-05-10T08:07:22;5.45;;;2.88;;
33162;SDS011;29282;45.656;11.302;2023-05-10T08:09:49;4.22;;;2.70;;
33162;SDS011;29282;45.656;11.302;2023-05-10T08:12:15;4.05;;;2.38;;
33162;SDS011;29282;45.656;11.302;2023-05-10T08:14:40;3.00;;;2.72;;
33162;SDS011;29282;45.656;11.302;2023-05-10T08:17:06;4.53;;;2.50;;
33162;SDS011;29282;45.656;11.302;2023-05-10T08:19:31;2.63;;;2.33;;
33162;SDS011;29282;45.656;11.302;2023-05-10T08:21:57;2.92;;;2.38;;
33162;SDS011;29282;45.656;11.302;2023-05-10T08:24:22;4.38;;;2.55;;
33162;SDS011;29282;45.656;11.302;2023-05-10T08:26:48;3.08;;;2.40;;
33162;SDS011;29282;45.656;11.302;2023-05-10T08:29:14;2.50;;;2.30;;
33162;SDS011;29282;45.656;11.302;2023-05-10T08:31:40;3.10;;;2.65;;
33162;SDS011;29282;45.656;11.302;2023-05-10T08:34:05;4.35;;;2.40;;
33162;SDS011;29282;45.656;11.302;2023-05-10T08:36:31;2.97;;;2.40;;
33162;SDS011;29282;45.656;11.302;2023-05-10T08:38:57;3.70;;;2.13;;
33162;SDS011;29282;45.656;11.302;2023-05-10T08:41:23;4.38;;;2.67;;
33162;SDS011;29282;45.656;11.302;2023-05-10T08:43:51;3.90;;;2.55;;
33162;SDS011;29282;45.656;11.302;2023-05-10T08:46:20;2.88;;;2.38;;
33162;SDS011;29282;45.656;11.302;2023-05-10T08:48:47;3.47;;;2.60;;
33162;SDS011;29282;45.656;11.302;2023-05-10T08:51:14;3.00;;;2.40;;
33162;SDS011;29282;45.656;11.302;2023-05-10T08:53:45;4.07;;;2.45;;
33162;SDS011;29282;45.656;11.302;2023-05-10T08:56:10;3.38;;;2.25;;
33162;SDS011;29282;45.656;11.302;2023-05-10T08:58:37;3.33;;;2.55;;
33162;SDS011;29282;45.656;11.302;2023-05-10T09:01:03;3.53;;;2.42;;
33162;SDS011;29282;45.656;11.302;2023-05-10T09:03:30;4.03;;;2.50;;
33162;SDS011;29282;45.656;11.302;2023-05-10T09:05:56;2.50;;;2.30;;
33162;SDS011;29282;45.656;11.302;2023-05-10T09:08:22;4.00;;;2.60;;
33162;SDS011;29282;45.656;11.302;2023-05-10T09:10:52;2.35;;;2.15;;
33162;SDS011;29282;45.656;11.302;2023-05-10T09:13:19;3.53;;;2.40;;
33162;SDS011;29282;45.656;11.302;2023-05-10T09:15:46;3.92;;;2.42;;
33162;SDS011;29282;45.656;11.302;2023-05-10T09:18:12;3.45;;;2.45;;
33162;SDS011;29282;45.656;11.302;2023-05-10T09:20:38;5.05;;;2.33;;
33162;SDS011;29282;45.656;11.302;2023-05-10T09:23:04;3.13;;;2.40;;
33162;SDS011;29282;45.656;11.302;2023-05-10T09:25:32;2.70;;;2.50;;
33162;SDS011;29282;45.656;11.302;2023-05-10T09:27:58;4.88;;;2.58;;
33162;SDS011;29282;45.656;11.302;2023-05-10T09:30:26;2.85;;;2.30;;
33162;SDS011;29282;45.656;11.302;2023-05-10T09:32:53;2.50;;;2.17;;
33162;SDS011;29282;45.656;11.302;2023-05-10T09:35:20;4.47;;;2.40;;
33162;SDS011;29282;45.656;11.302;2023-05-10T09:37:51;2.80;;;2.20;;
33162;SDS011;29282;45.656;11.302;2023-05-10T09:40:24;2.67;;;2.22;;
33162;SDS011;29282;45.656;11.302;2023-05-10T09:42:54;3.20;;;2.35;;
33162;SDS011;29282;45.656;11.302;2023-05-10T09:45:20;5.15;;;2.40;;
33162;SDS011;29282;45.656;11.302;2023-05-10T09:47:47;2.70;;;2.50;;
33162;SDS011;29282;45.656;11.302;2023-05-10T09:50:16;2.90;;;2.50;;
33162;SDS011;29282;45.656;11.302;2023-05-10T09:52:48;4.65;;;2.33;;
33162;SDS011;29282;45.656;11.302;2023-05-10T09:55:41;2.30;;;2.03;;
33162;SDS011;29282;45.656;11.302;2023-05-10T09:58:09;2.72;;;2.53;;
33162;SDS011;29282;45.656;11.302;2023-05-10T10:00:36;3.55;;;2.33;;
33162;SDS011;29282;45.656;11.302;2023-05-10T10:03:03;2.75;;;2.25;;
33162;SDS011;29282;45.656;11.302;2023-05-10T10:05:31;2.97;;;2.30;;
33162;SDS011;29282;45.656;11.302;2023-05-10T10:07:58;3.53;;;2.70;;
33162;SDS011;29282;45.656;11.302;2023-05-10T10:10:24;2.75;;;2.10;;
33162;SDS011;29282;45.656;11.302;2023-05-10T10:12:51;4.03;;;2.30;;
33162;SDS011;29282;45.656;11.302;2023-05-10T10:15:20;3.05;;;2.15;;
33162;SDS011;29282;45.656;11.302;2023-05-10T10:17:46;2.30;;;2.10;;
33162;SDS011;29282;45.656;11.302;2023-05-10T10:20:13;2.40;;;2.20;;
33162;SDS011;29282;45.656;11.302;2023-05-10T10:22:40;2.40;;;2.20;;
33162;SDS011;29282;45.656;11.302;2023-05-10T10:25:05;2.38;;;2.17;;
33162;SDS011;29282;45.656;11.302;2023-05-10T10:35:28;3.75;;;2.58;;
33162;SDS011;29282;45.656;11.302;2023-05-10T10:37:56;4.32;;;2.58;;
33162;SDS011;29282;45.656;11.302;2023-05-10T10:40:26;2.50;;;2.28;;
33162;SDS011;29282;45.656;11.302;2023-05-10T10:42:51;2.45;;;2.00;;
33162;SDS011;29282;45.656;11.302;2023-05-10T10:45:18;3.05;;;2.30;;
33162;SDS011;29282;45.656;11.302;2023-05-10T10:47:44;2.40;;;2.20;;
33162;SDS011;29282;45.656;11.302;2023-05-10T10:50:10;2.67;;;2.33;;
33162;SDS011;29282;45.656;11.302;2023-05-10T10:52:41;2.28;;;2.08;;
33162;SDS011;29282;45.656;11.302;2023-05-10T11:02:51;3.42;;;2.60;;
33162;SDS011;29282;45.656;11.302;2023-05-10T11:05:34;2.67;;;2.35;;
33162;SDS011;29282;45.656;11.302;2023-05-10T11:08:45;2.30;;;2.10;;
33162;SDS011;29282;45.656;11.302;2023-05-10T11:15:57;4.10;;;2.15;;
33162;SDS011;29282;45.656;11.302;2023-05-10T11:18:25;2.63;;;2.03;;
33162;SDS011;29282;45.656;11.302;2023-05-10T11:20:58;2.00;;;1.90;;
33162;SDS011;29282;45.656;11.302;2023-05-10T11:23:31;2.83;;;2.30;;
33162;SDS011;29282;45.656;11.302;2023-05-10T11:26:12;2.50;;;2.15;;
33162;SDS011;29282;45.656;11.302;2023-05-10T11:28:42;2.20;;;2.00;;
33162;SDS011;29282;45.656;11.302;2023-05-10T11:31:08;2.50;;;2.30;;
33162;SDS011;29282;45.656;11.302;2023-05-10T11:33:44;2.15;;;1.92;;
33162;SDS011;29282;45.656;11.302;2023-05-10T11:38:57;4.10;;;2.10;;
33162;SDS011;29282;45.656;11.302;2023-05-10T11:41:23;2.60;;;2.20;;
33162;SDS011;29282;45.656;11.302;2023-05-10T11:43:50;2.38;;;2.17;;
33162;SDS011;29282;45.656;11.302;2023-05-10T11:46:18;1.95;;;1.80;;
33162;SDS011;29282;45.656;11.302;2023-05-10T11:48:49;2.72;;;2.53;;
33162;SDS011;29282;45.656;11.302;2023-05-10T11:51:23;2.45;;;2.25;;
33162;SDS011;29282;45.656;11.302;2023-05-10T11:53:50;2.35;;;2.15;;
33162;SDS011;29282;45.656;11.302;2023-05-10T11:56:17;2.45;;;2.05;;
33162;SDS011;29282;45.656;11.302;2023-05-10T11:58:51;3.17;;;2.40;;
33162;SDS011;29282;45.656;11.302;2023-05-10T12:01:18;2.40;;;2.15;;
33162;SDS011;29282;45.656;11.302;2023-05-10T12:03:44;3.85;;;2.25;;
33162;SDS011;29282;45.656;11.302;2023-05-10T12:06:10;4.78;;;2.50;;
33162;SDS011;29282;45.656;11.302;2023-05-10T12:08:36;4.40;;;2.65;;
33162;SDS011;29282;45.656;11.302;2023-05-10T12:11:05;4.28;;;2.20;;
33162;SDS011;29282;45.656;11.302;2023-05-10T12:13:32;6.35;;;2.35;;
33162;SDS011;29282;45.656;11.302;2023-05-10T12:16:11;3.78;;;2.20;;
33162;SDS011;29282;45.656;11.302;2023-05-10T12:18:58;2.97;;;2.20;;
33162;SDS011;29282;45.656;11.302;2023-05-10T12:21:25;4.35;;;2.20;;
33162;SDS011;29282;45.656;11.302;2023-05-10T12:23:53;2.70;;;2.35;;
33162;SDS011;29282;45.656;11.302;2023-05-10T12:26:23;3.47;;;2.50;;
33162;SDS011;29282;45.656;11.302;2023-05-10T12:28:52;3.38;;;2.38;;
33162;SDS011;29282;45.656;11.302;2023-05-10T12:31:18;6.35;;;2.55;;
33162;SDS011;29282;45.656;11.302;2023-05-10T12:33:44;6.00;;;2.28;;
33162;SDS011;29282;45.656;11.302;2023-05-10T12:36:10;5.18;;;2.25;;
33162;SDS011;29282;45.656;11.302;2023-05-10T12:38:37;2.95;;;2.22;;
33162;SDS011;29282;45.656;11.302;2023-05-10T12:41:08;9.63;;;2.45;;
33162;SDS011;29282;45.656;11.302;2023-05-10T12:43:35;3.50;;;2.25;;
33162;SDS011;29282;45.656;11.302;2023-05-10T12:46:04;4.88;;;2.20;;
33162;SDS011;29282;45.656;11.302;2023-05-10T12:48:37;2.20;;;2.00;;
33162;SDS011;29282;45.656;11.302;2023-05-10T12:51:07;3.38;;;2.33;;
33162;SDS011;29282;45.656;11.302;2023-05-10T12:53:42;2.45;;;2.10;;
33162;SDS011;29282;45.656;11.302;2023-05-10T12:56:07;2.38;;;2.17;;
33162;SDS011;29282;45.656;11.302;2023-05-10T12:58:33;2.70;;;2.22;;
33162;SDS011;29282;45.656;11.302;2023-05-10T13:00:59;6.10;;;2.30;;
33162;SDS011;29282;45.656;11.302;2023-05-10T13:03:25;4.05;;;2.30;;
33162;SDS011;29282;45.656;11.302;2023-05-10T13:05:50;2.70;;;2.15;;
33162;SDS011;29282;45.656;11.302;2023-05-10T13:08:16;2.28;;;1.90;;
33162;SDS011;29282;45.656;11.302;2023-05-10T13:10:41;3.58;;;2.20;;
33162;SDS011;29282;45.656;11.302;2023-05-10T13:13:07;2.47;;;2.28;;
33162;SDS011;29282;45.656;11.302;2023-05-10T13:15:33;2.53;;;2.30;;
33162;SDS011;29282;45.656;11.302;2023-05-10T13:18:02;3.85;;;2.42;;
33162;SDS011;29282;45.656;11.302;2023-05-10T13:20:27;3.45;;;2.22;;
33162;SDS011;29282;45.656;11.302;2023-05-10T13:22:53;2.85;;;1.98;;
33162;SDS011;29282;45.656;11.302;2023-05-10T13:25:18;2.17;;;1.95;;
33162;SDS011;29282;45.656;11.302;2023-05-10T13:27:44;3.28;;;2.40;;
33162;SDS011;29282;45.656;11.302;2023-05-10T13:30:10;2.53;;;2.30;;
33162;SDS011;29282;45.656;11.302;2023-05-10T13:32:36;2.83;;;2.15;;
33162;SDS011;29282;45.656;11.302;2023-05-10T13:35:02;3.42;;;2.47;;
33162;SDS011;29282;45.656;11.302;2023-05-10T13:37:29;3.72;;;2.17;;
33162;SDS011;29282;45.656;11.302;2023-05-10T13:39:55;4.22;;;2.25;;
33162;SDS011;29282;45.656;11.302;2023-05-10T13:42:21;3.40;;;2.20;;
33162;SDS011;29282;45.656;11.302;2023-05-10T13:44:48;3.40;;;2.17;;
33162;SDS011;29282;45.656;11.302;2023-05-10T13:47:13;5.35;;;2.30;;
33162;SDS011;29282;45.656;11.302;2023-05-10T13:49:38;2.20;;;2.00;;
33162;SDS011;29282;45.656;11.302;2023-05-10T13:52:04;8.85;;;2.40;;
33162;SDS011;29282;45.656;11.302;2023-05-10T13:54:34;2.17;;;1.98;;
33162;SDS011;29282;45.656;11.302;2023-05-10T13:57:00;2.70;;;2.30;;
33162;SDS011;29282;45.656;11.302;2023-05-10T13:59:26;3.60;;;2.20;;
33162;SDS011;29282;45.656;11.302;2023-05-10T14:01:52;2.92;;;1.92;;
33162;SDS011;29282;45.656;11.302;2023-05-10T14:04:17;3.72;;;2.15;;
33162;SDS011;29282;45.656;11.302;2023-05-10T14:06:43;2.38;;;2.00;;
33162;SDS011;29282;45.656;11.302;2023-05-10T14:09:08;2.90;;;2.28;;
33162;SDS011;29282;45.656;11.302;2023-05-10T14:11:34;2.88;;;2.20;;
33162;SDS011;29282;45.656;11.302;2023-05-10T14:13:59;2.42;;;2.17;;
33162;SDS011;29282;45.656;11.302;2023-05-10T14:16:25;3.75;;;1.88;;
33162;SDS011;29282;45.656;11.302;2023-05-10T14:18:51;2.33;;;2.13;;
33162;SDS011;29282;45.656;11.302;2023-05-10T14:21:16;2.30;;;2.10;;
33162;SDS011;29282;45.656;11.302;2023-05-10T14:23:42;4.70;;;2.33;;
33162;SDS011;29282;45.656;11.302;2023-05-10T14:26:07;2.22;;;2.03;;
33162;SDS011;29282;45.656;11.302;2023-05-10T14:28:33;3.85;;;1.90;;
33162;SDS011;29282;45.656;11.302;2023-05-10T14:30:59;2.28;;;2.00;;
33162;SDS011;29282;45.656;11.302;2023-05-10T14:33:24;5.30;;;2.28;;
33162;SDS011;29282;45.656;11.302;2023-05-10T14:35:50;2.75;;;2.05;;
33162;SDS011;29282;45.656;11.302;2023-05-10T14:38:16;3.17;;;2.13;;
33162;SDS011;29282;45.656;11.302;2023-05-10T14:40:41;2.65;;;2.08;;
33162;SDS011;29282;45.656;11.302;2023-05-10T14:43:07;2.58;;;2.10;;
33162;SDS011;29282;45.656;11.302;2023-05-10T14:45:33;3.22;;;2.33;;
33162;SDS011;29282;45.656;11.302;2023-05-10T14:47:58;2.25;;;2.05;;
33162;SDS011;29282;45.656;11.302;2023-05-10T14:50:25;3.60;;;2.58;;
33162;SDS011;29282;45.656;11.302;2023-05-10T14:52:50;3.13;;;2.30;;
33162;SDS011;29282;45.656;11.302;2023-05-10T14:55:16;2.03;;;1.90;;
33162;SDS011;29282;45.656;11.302;2023-05-10T14:57:42;2.88;;;2.10;;
33162;SDS011;29282;45.656;11.302;2023-05-10T15:00:09;3.63;;;2.05;;
33162;SDS011;29282;45.656;11.302;2023-05-10T15:02:35;2.25;;;2.05;;
33162;SDS011;29282;45.656;11.302;2023-05-10T15:05:00;2.83;;;2.30;;
33162;SDS011;29282;45.656;11.302;2023-05-10T15:07:26;2.30;;;2.10;;
33162;SDS011;29282;45.656;11.302;2023-05-10T15:09:51;2.40;;;2.20;;
33162;SDS011;29282;45.656;11.302;2023-05-10T15:12:17;2.28;;;2.08;;
33162;SDS011;29282;45.656;11.302;2023-05-10T15:14:43;2.10;;;1.90;;
33162;SDS011;29282;45.656;11.302;2023-05-10T15:17:12;1.90;;;1.80;;